sensor_id;sensor_type;location;lat;lon;timestamp;temperature;humidity
47961;DHT22;33721;48.852;9.936;2023-03-24T00:02:16;12.80;99.90
47961;DHT22;33721;48.852;9.936;2023-03-24T00:04:42;12.80;99.90
47961;DHT22;33721;48.852;9.936;2023-03-24T00:07:09;12.70;99.90
47961;DHT22;33721;48.852;9.936;2023-03-24T00:09:43;12.70;99.90
47961;DHT22;33721;48.852;9.936;2023-03-24T00:12:10;12.40;99.90
47961;DHT22;33721;48.852;9.936;2023-03-24T00:14:37;12.30;99.90
47961;DHT22;33721;48.852;9.936;2023-03-24T00:17:06;12.10;99.90
47961;DHT22;33721;48.852;9.936;2023-03-24T00:19:38;12.00;99.90
47961;DHT22;33721;48.852;9.936;2023-03-24T00:22:05;12.00;99.90
47961;DHT22;33721;48.852;9.936;2023-03-24T00:24:33;12.00;99.90
47961;DHT22;33721;48.852;9.936;2023-03-24T00:26:59;12.00;99.90
47961;DHT22;33721;48.852;9.936;2023-03-24T00:29:25;12.20;99.90
47961;DHT22;33721;48.852;9.936;2023-03-24T00:31:52;12.20;99.90
47961;DHT22;33721;48.852;9.936;2023-03-24T00:34:21;12.20;99.90
47961;DHT22;33721;48.852;9.936;2023-03-24T00:36:48;12.30;99.90
47961;DHT22;33721;48.852;9.936;2023-03-24T00:39:16;12.40;99.90
47961;DHT22;33721;48.852;9.936;2023-03-24T00:41:43;12.40;99.90
47961;DHT22;33721;48.852;9.936;2023-03-24T00:44:10;12.40;99.90
47961;DHT22;33721;48.852;9.936;2023-03-24T00:46:51;12.40;99.90
47961;DHT22;33721;48.852;9.936;2023-03-24T00:49:25;12.40;99.90
47961;DHT22;33721;48.852;9.936;2023-03-24T00:52:17;12.40;99.90
47961;DHT22;33721;48.852;9.936;2023-03-24T00:54:46;12.40;99.90
47961;DHT22;33721;48.852;9.936;2023-03-24T00:57:13;12.30;99.90
47961;DHT22;33721;48.852;9.936;2023-03-24T00:59:40;12.20;99.90
47961;DHT22;33721;48.852;9.936;2023-03-24T01:02:18;12.30;99.90
47961;DHT22;33721;48.852;9.936;2023-03-24T01:04:58;12.30;99.90
47961;DHT22;33721;48.852;9.936;2023-03-24T01:07:25;12.30;99.90
47961;DHT22;33721;48.852;9.936;2023-03-24T01:09:52;12.30;99.90
47961;DHT22;33721;48.852;9.936;2023-03-24T01:12:30;12.30;99.90
47961;DHT22;33721;48.852;9.936;2023-03-24T01:14:57;12.30;99.90
47961;DHT22;33721;48.852;9.936;2023-03-24T01:17:24;12.20;99.90
47961;DHT22;33721;48.852;9.936;2023-03-24T01:19:54;12.30;99.90
47961;DHT22;33721;48.852;9.936;2023-03-24T01:22:20;12.20;99.90
47961;DHT22;33721;48.852;9.936;2023-03-24T01:24:48;12.20;99.90
47961;DHT22;33721;48.852;9.936;2023-03-24T01:27:14;12.10;99.90
47961;DHT22;33721;48.852;9.936;2023-03-24T01:29:40;12.10;99.90
47961;DHT22;33721;48.852;9.936;2023-03-24T01:32:07;12.10;99.90
47961;DHT22;33721;48.852;9.936;2023-03-24T01:34:32;12.10;99.90
47961;DHT22;33721;48.852;9.936;2023-03-24T01:36:59;12.10;99.90
47961;DHT22;33721;48.852;9.936;2023-03-24T01:39:25;12.20;99.90
47961;DHT22;33721;48.852;9.936;2023-03-24T01:41:51;12.20;99.90
47961;DHT22;33721;48.852;9.936;2023-03-24T01:44:24;12.20;99.90
47961;DHT22;33721;48.852;9.936;2023-03-24T01:46:50;12.10;99.90
47961;DHT22;33721;48.852;9.936;2023-03-24T01:49:16;12.00;99.90
47961;DHT22;33721;48.852;9.936;2023-03-24T01:51:44;12.10;99.90
47961;DHT22;33721;48.852;9.936;2023-03-24T01:54:20;12.00;99.90
47961;DHT22;33721;48.852;9.936;2023-03-24T01:57:12;11.90;99.90
47961;DHT22;33721;48.852;9.936;2023-03-24T01:59:42;11.90;99.90
47961;DHT22;33721;48.852;9.936;2023-03-24T02:02:09;11.80;99.90
47961;DHT22;33721;48.852;9.936;2023-03-24T02:04:46;11.80;99.90
47961;DHT22;33721;48.852;9.936;2023-03-24T02:07:19;11.90;99.90
47961;DHT22;33721;48.852;9.936;2023-03-24T02:09:47;11.80;99.90
47961;DHT22;33721;48.852;9.936;2023-03-24T02:12:13;11.90;99.90
47961;DHT22;33721;48.852;9.936;2023-03-24T02:14:39;11.90;99.90
47961;DHT22;33721;48.852;9.936;2023-03-24T02:31:14;11.80;99.90
47961;DHT22;33721;48.852;9.936;2023-03-24T02:34:11;11.80;99.90
47961;DHT22;33721;48.852;9.936;2023-03-24T02:39:30;12.30;99.90
47961;DHT22;33721;48.852;9.936;2023-03-24T02:47:33;12.90;99.90
47961;DHT22;33721;48.852;9.936;2023-03-24T02:50:15;13.30;99.90
47961;DHT22;33721;48.852;9.936;2023-03-24T02:52:47;13.50;99.90
47961;DHT22;33721;48.852;9.936;2023-03-24T02:55:21;13.50;99.90
47961;DHT22;33721;48.852;9.936;2023-03-24T02:57:58;13.50;99.90
47961;DHT22;33721;48.852;9.936;2023-03-24T03:00:31;13.60;99.90
47961;DHT22;33721;48.852;9.936;2023-03-24T03:03:07;13.70;99.90
47961;DHT22;33721;48.852;9.936;2023-03-24T03:05:41;13.80;99.90
47961;DHT22;33721;48.852;9.936;2023-03-24T03:08:11;14.00;99.90
47961;DHT22;33721;48.852;9.936;2023-03-24T03:10:42;14.00;99.90
47961;DHT22;33721;48.852;9.936;2023-03-24T03:13:35;14.00;99.90
47961;DHT22;33721;48.852;9.936;2023-03-24T03:16:16;14.20;99.90
47961;DHT22;33721;48.852;9.936;2023-03-24T03:18:47;14.10;99.90
47961;DHT22;33721;48.852;9.936;2023-03-24T03:21:19;14.10;99.90
47961;DHT22;33721;48.852;9.936;2023-03-24T03:23:48;14.20;99.90
47961;DHT22;33721;48.852;9.936;2023-03-24T03:26:17;14.30;99.90
47961;DHT22;33721;48.852;9.936;2023-03-24T03:28:49;14.20;99.90
47961;DHT22;33721;48.852;9.936;2023-03-24T03:31:22;14.20;99.90
47961;DHT22;33721;48.852;9.936;2023-03-24T03:33:52;14.20;99.90
47961;DHT22;33721;48.852;9.936;2023-03-24T03:36:48;14.10;99.90
47961;DHT22;33721;48.852;9.936;2023-03-24T03:39:27;14.10;99.90
47961;DHT22;33721;48.852;9.936;2023-03-24T03:41:54;14.20;99.90
47961;DHT22;33721;48.852;9.936;2023-03-24T03:44:21;14.10;99.90
47961;DHT22;33721;48.852;9.936;2023-03-24T03:46:47;14.20;99.90
47961;DHT22;33721;48.852;9.936;2023-03-24T03:49:12;14.10;99.90
47961;DHT22;33721;48.852;9.936;2023-03-24T03:51:38;14.10;99.90
47961;DHT22;33721;48.852;9.936;2023-03-24T03:54:09;14.10;99.90
47961;DHT22;33721;48.852;9.936;2023-03-24T03:56:36;14.10;99.90
47961;DHT22;33721;48.852;9.936;2023-03-24T03:59:04;14.20;99.90
47961;DHT22;33721;48.852;9.936;2023-03-24T04:01:32;14.30;99.90
47961;DHT22;33721;48.852;9.936;2023-03-24T04:04:07;14.30;99.90
47961;DHT22;33721;48.852;9.936;2023-03-24T04:06:59;14.30;99.90
47961;DHT22;33721;48.852;9.936;2023-03-24T04:23:13;14.10;99.90
47961;DHT22;33721;48.852;9.936;2023-03-24T04:32:07;13.90;99.90
47961;DHT22;33721;48.852;9.936;2023-03-24T04:34:15;13.80;99.90
47961;DHT22;33721;48.852;9.936;2023-03-24T04:37:07;13.60;99.90
47961;DHT22;33721;48.852;9.936;2023-03-24T04:39:39;13.60;99.90
47961;DHT22;33721;48.852;9.936;2023-03-24T04:42:10;13.50;99.90
47961;DHT22;33721;48.852;9.936;2023-03-24T04:44:36;13.50;99.90
47961;DHT22;33721;48.852;9.936;2023-03-24T04:47:03;13.40;99.90
47961;DHT22;33721;48.852;9.936;2023-03-24T04:49:29;13.40;99.90
47961;DHT22;33721;48.852;9.936;2023-03-24T04:51:55;13.40;99.90
47961;DHT22;33721;48.852;9.936;2023-03-24T04:54:22;13.50;99.90
47961;DHT22;33721;48.852;9.936;2023-03-24T04:56:52;13.40;99.90
47961;DHT22;33721;48.852;9.936;2023-03-24T04:59:19;13.30;99.90
47961;DHT22;33721;48.852;9.936;2023-03-24T05:01:45;13.20;99.90
47961;DHT22;33721;48.852;9.936;2023-03-24T05:04:19;13.10;99.90
47961;DHT22;33721;48.852;9.936;2023-03-24T05:06:45;13.00;99.90
47961;DHT22;33721;48.852;9.936;2023-03-24T05:09:12;13.00;99.90
47961;DHT22;33721;48.852;9.936;2023-03-24T05:11:39;13.10;99.90
47961;DHT22;33721;48.852;9.936;2023-03-24T05:14:05;13.20;99.90
47961;DHT22;33721;48.852;9.936;2023-03-24T05:16:30;13.40;99.90
47961;DHT22;33721;48.852;9.936;2023-03-24T05:18:56;13.40;99.90
47961;DHT22;33721;48.852;9.936;2023-03-24T05:21:22;13.40;99.90
47961;DHT22;33721;48.852;9.936;2023-03-24T05:23:47;13.40;99.90
47961;DHT22;33721;48.852;9.936;2023-03-24T05:26:13;13.40;99.90
47961;DHT22;33721;48.852;9.936;2023-03-24T05:28:39;13.50;99.90
47961;DHT22;33721;48.852;9.936;2023-03-24T05:31:04;13.50;99.90
47961;DHT22;33721;48.852;9.936;2023-03-24T05:33:30;13.50;99.90
47961;DHT22;33721;48.852;9.936;2023-03-24T05:35:56;13.50;99.90
47961;DHT22;33721;48.852;9.936;2023-03-24T05:38:22;13.70;99.90
47961;DHT22;33721;48.852;9.936;2023-03-24T05:40:47;13.70;99.90
47961;DHT22;33721;48.852;9.936;2023-03-24T05:43:13;14.00;99.90
47961;DHT22;33721;48.852;9.936;2023-03-24T05:45:39;14.10;99.90
47961;DHT22;33721;48.852;9.936;2023-03-24T05:48:05;14.20;99.90
47961;DHT22;33721;48.852;9.936;2023-03-24T05:50:31;14.10;99.90
47961;DHT22;33721;48.852;9.936;2023-03-24T05:52:57;14.30;99.90
47961;DHT22;33721;48.852;9.936;2023-03-24T05:55:22;14.50;99.90
47961;DHT22;33721;48.852;9.936;2023-03-24T05:57:48;14.70;99.90
47961;DHT22;33721;48.852;9.936;2023-03-24T06:00:14;14.80;99.90
47961;DHT22;33721;48.852;9.936;2023-03-24T06:02:45;14.60;99.90
47961;DHT22;33721;48.852;9.936;2023-03-24T06:05:11;14.40;99.90
47961;DHT22;33721;48.852;9.936;2023-03-24T06:07:38;14.20;99.90
47961;DHT22;33721;48.852;9.936;2023-03-24T06:10:09;14.10;99.90
47961;DHT22;33721;48.852;9.936;2023-03-24T06:12:36;13.70;99.90
47961;DHT22;33721;48.852;9.936;2023-03-24T06:15:02;13.50;99.90
47961;DHT22;33721;48.852;9.936;2023-03-24T06:17:29;13.30;99.90
47961;DHT22;33721;48.852;9.936;2023-03-24T06:19:55;13.20;99.90
47961;DHT22;33721;48.852;9.936;2023-03-24T06:22:31;12.90;99.90
47961;DHT22;33721;48.852;9.936;2023-03-24T06:24:57;12.70;99.90
47961;DHT22;33721;48.852;9.936;2023-03-24T06:27:24;12.60;99.90
47961;DHT22;33721;48.852;9.936;2023-03-24T06:29:51;12.50;99.90
47961;DHT22;33721;48.852;9.936;2023-03-24T06:32:18;12.40;99.90
47961;DHT22;33721;48.852;9.936;2023-03-24T06:34:44;12.30;99.90
47961;DHT22;33721;48.852;9.936;2023-03-24T06:37:10;12.30;99.90
47961;DHT22;33721;48.852;9.936;2023-03-24T06:39:36;12.20;99.90
47961;DHT22;33721;48.852;9.936;2023-03-24T06:42:02;12.20;99.90
47961;DHT22;33721;48.852;9.936;2023-03-24T06:44:28;12.10;99.90
47961;DHT22;33721;48.852;9.936;2023-03-24T06:46:53;12.00;99.90
47961;DHT22;33721;48.852;9.936;2023-03-24T06:49:19;12.00;99.90
47961;DHT22;33721;48.852;9.936;2023-03-24T06:51:45;12.10;99.90
47961;DHT22;33721;48.852;9.936;2023-03-24T06:54:11;12.10;99.90
47961;DHT22;33721;48.852;9.936;2023-03-24T06:56:37;12.10;99.90
47961;DHT22;33721;48.852;9.936;2023-03-24T06:59:02;12.20;99.90
47961;DHT22;33721;48.852;9.936;2023-03-24T07:01:28;12.20;99.90
47961;DHT22;33721;48.852;9.936;2023-03-24T07:03:54;12.20;99.90
47961;DHT22;33721;48.852;9.936;2023-03-24T07:06:20;12.20;99.90
47961;DHT22;33721;48.852;9.936;2023-03-24T07:08:47;12.10;99.90
47961;DHT22;33721;48.852;9.936;2023-03-24T07:11:13;12.20;99.90
47961;DHT22;33721;48.852;9.936;2023-03-24T07:13:42;12.20;99.90
47961;DHT22;33721;48.852;9.936;2023-03-24T07:16:08;12.10;99.90
47961;DHT22;33721;48.852;9.936;2023-03-24T07:18:34;11.90;99.90
47961;DHT22;33721;48.852;9.936;2023-03-24T07:20:59;11.90;99.90
47961;DHT22;33721;48.852;9.936;2023-03-24T07:23:25;11.90;99.90
47961;DHT22;33721;48.852;9.936;2023-03-24T07:25:52;11.80;99.90
47961;DHT22;33721;48.852;9.936;2023-03-24T07:28:18;11.80;99.90
47961;DHT22;33721;48.852;9.936;2023-03-24T07:30:44;11.80;99.90
47961;DHT22;33721;48.852;9.936;2023-03-24T07:33:09;11.80;99.90
47961;DHT22;33721;48.852;9.936;2023-03-24T07:35:37;11.80;99.90
47961;DHT22;33721;48.852;9.936;2023-03-24T07:38:03;11.80;99.90
47961;DHT22;33721;48.852;9.936;2023-03-24T07:40:29;11.90;99.90
47961;DHT22;33721;48.852;9.936;2023-03-24T07:42:59;11.90;99.90
47961;DHT22;33721;48.852;9.936;2023-03-24T07:45:25;11.90;99.90
47961;DHT22;33721;48.852;9.936;2023-03-24T07:47:53;11.80;99.90
47961;DHT22;33721;48.852;9.936;2023-03-24T07:50:19;11.80;99.90
47961;DHT22;33721;48.852;9.936;2023-03-24T07:52:48;11.70;99.90
47961;DHT22;33721;48.852;9.936;2023-03-24T07:55:14;11.70;99.90
47961;DHT22;33721;48.852;9.936;2023-03-24T07:57:47;11.70;99.90
47961;DHT22;33721;48.852;9.936;2023-03-24T08:00:14;11.70;99.90
47961;DHT22;33721;48.852;9.936;2023-03-24T08:02:46;11.60;99.90
47961;DHT22;33721;48.852;9.936;2023-03-24T08:05:12;11.60;99.90
47961;DHT22;33721;48.852;9.936;2023-03-24T08:07:42;11.60;99.90
47961;DHT22;33721;48.852;9.936;2023-03-24T08:10:10;11.60;99.90
47961;DHT22;33721;48.852;9.936;2023-03-24T08:12:36;11.60;99.90
47961;DHT22;33721;48.852;9.936;2023-03-24T08:15:02;11.60;99.90
47961;DHT22;33721;48.852;9.936;2023-03-24T08:17:28;11.60;99.90
47961;DHT22;33721;48.852;9.936;2023-03-24T08:19:54;11.50;99.90
47961;DHT22;33721;48.852;9.936;2023-03-24T08:22:19;11.60;99.90
47961;DHT22;33721;48.852;9.936;2023-03-24T08:24:45;11.60;99.90
47961;DHT22;33721;48.852;9.936;2023-03-24T08:27:11;11.60;99.90
47961;DHT22;33721;48.852;9.936;2023-03-24T08:29:36;11.50;99.90
47961;DHT22;33721;48.852;9.936;2023-03-24T08:32:03;11.50;99.90
47961;DHT22;33721;48.852;9.936;2023-03-24T08:34:29;11.50;99.90
47961;DHT22;33721;48.852;9.936;2023-03-24T08:36:54;11.50;99.90
47961;DHT22;33721;48.852;9.936;2023-03-24T08:39:20;11.50;99.90
47961;DHT22;33721;48.852;9.936;2023-03-24T08:41:46;11.50;99.90
47961;DHT22;33721;48.852;9.936;2023-03-24T08:44:14;11.50;99.90
47961;DHT22;33721;48.852;9.936;2023-03-24T08:46:41;11.60;99.90
47961;DHT22;33721;48.852;9.936;2023-03-24T08:49:06;11.60;99.90
47961;DHT22;33721;48.852;9.936;2023-03-24T08:51:32;11.60;99.90
47961;DHT22;33721;48.852;9.936;2023-03-24T08:53:58;11.60;99.90
47961;DHT22;33721;48.852;9.936;2023-03-24T08:56:24;11.60;99.90
47961;DHT22;33721;48.852;9.936;2023-03-24T08:58:50;11.60;99.90
47961;DHT22;33721;48.852;9.936;2023-03-24T09:01:18;11.60;99.90
47961;DHT22;33721;48.852;9.936;2023-03-24T09:03:44;11.70;99.90
47961;DHT22;33721;48.852;9.936;2023-03-24T09:06:11;11.70;99.90
47961;DHT22;33721;48.852;9.936;2023-03-24T09:08:37;11.70;99.90
47961;DHT22;33721;48.852;9.936;2023-03-24T09:11:03;11.70;99.90
47961;DHT22;33721;48.852;9.936;2023-03-24T09:13:29;11.80;99.90
47961;DHT22;33721;48.852;9.936;2023-03-24T09:16:00;11.90;99.90
47961;DHT22;33721;48.852;9.936;2023-03-24T09:18:27;11.90;99.90
47961;DHT22;33721;48.852;9.936;2023-03-24T09:20:53;11.80;99.90
47961;DHT22;33721;48.852;9.936;2023-03-24T09:23:19;11.90;99.90
47961;DHT22;33721;48.852;9.936;2023-03-24T09:25:48;12.00;99.90
47961;DHT22;33721;48.852;9.936;2023-03-24T09:28:14;12.00;99.90
47961;DHT22;33721;48.852;9.936;2023-03-24T09:30:41;12.10;99.90
47961;DHT22;33721;48.852;9.936;2023-03-24T09:33:07;12.20;99.90
47961;DHT22;33721;48.852;9.936;2023-03-24T09:35:33;12.30;99.90
47961;DHT22;33721;48.852;9.936;2023-03-24T09:37:58;12.30;99.90
47961;DHT22;33721;48.852;9.936;2023-03-24T09:40:28;12.30;99.90
47961;DHT22;33721;48.852;9.936;2023-03-24T09:43:05;12.40;99.90
47961;DHT22;33721;48.852;9.936;2023-03-24T09:45:35;12.40;99.90
47961;DHT22;33721;48.852;9.936;2023-03-24T09:48:03;12.50;99.90
47961;DHT22;33721;48.852;9.936;2023-03-24T09:56:18;12.60;99.90
47961;DHT22;33721;48.852;9.936;2023-03-24T09:58:59;12.60;99.90
47961;DHT22;33721;48.852;9.936;2023-03-24T10:01:26;12.60;99.90
47961;DHT22;33721;48.852;9.936;2023-03-24T10:03:56;12.70;99.90
47961;DHT22;33721;48.852;9.936;2023-03-24T10:06:25;12.70;99.90
47961;DHT22;33721;48.852;9.936;2023-03-24T10:15:09;12.80;99.90
47961;DHT22;33721;48.852;9.936;2023-03-24T10:20:40;13.10;99.90
47961;DHT22;33721;48.852;9.936;2023-03-24T10:25:55;13.20;99.90
47961;DHT22;33721;48.852;9.936;2023-03-24T10:28:39;13.30;99.90
47961;DHT22;33721;48.852;9.936;2023-03-24T10:31:13;13.30;99.90
47961;DHT22;33721;48.852;9.936;2023-03-24T10:33:42;13.40;99.90
47961;DHT22;33721;48.852;9.936;2023-03-24T10:36:19;13.50;99.90
47961;DHT22;33721;48.852;9.936;2023-03-24T10:38:45;13.80;99.90
47961;DHT22;33721;48.852;9.936;2023-03-24T10:41:22;14.00;99.90
47961;DHT22;33721;48.852;9.936;2023-03-24T10:43:50;14.20;99.90
47961;DHT22;33721;48.852;9.936;2023-03-24T10:46:19;14.40;99.90
47961;DHT22;33721;48.852;9.936;2023-03-24T10:48:48;14.60;99.90
47961;DHT22;33721;48.852;9.936;2023-03-24T10:51:31;14.60;99.90
47961;DHT22;33721;48.852;9.936;2023-03-24T10:54:19;14.40;99.90
47961;DHT22;33721;48.852;9.936;2023-03-24T11:04:33;14.50;99.90
47961;DHT22;33721;48.852;9.936;2023-03-24T11:09:28;14.40;99.90
47961;DHT22;33721;48.852;9.936;2023-03-24T11:11:54;14.30;99.90
47961;DHT22;33721;48.852;9.936;2023-03-24T11:14:22;14.30;99.90
47961;DHT22;33721;48.852;9.936;2023-03-24T11:16:51;14.60;99.90
47961;DHT22;33721;48.852;9.936;2023-03-24T11:19:25;14.70;99.90
47961;DHT22;33721;48.852;9.936;2023-03-24T11:21:56;14.70;99.90
47961;DHT22;33721;48.852;9.936;2023-03-24T11:24:24;14.60;99.90
47961;DHT22;33721;48.852;9.936;2023-03-24T11:27:01;14.50;99.90
47961;DHT22;33721;48.852;9.936;2023-03-24T11:29:30;14.50;99.90
47961;DHT22;33721;48.852;9.936;2023-03-24T11:32:03;14.60;99.90
47961;DHT22;33721;48.852;9.936;2023-03-24T11:34:37;14.50;99.90
47961;DHT22;33721;48.852;9.936;2023-03-24T11:39:33;14.50;99.90
47961;DHT22;33721;48.852;9.936;2023-03-24T11:42:13;14.40;99.90
47961;DHT22;33721;48.852;9.936;2023-03-24T11:44:49;14.30;99.90
47961;DHT22;33721;48.852;9.936;2023-03-24T11:47:30;14.30;99.90
47961;DHT22;33721;48.852;9.936;2023-03-24T11:55:11;14.40;99.90
47961;DHT22;33721;48.852;9.936;2023-03-24T11:57:57;14.60;99.90
47961;DHT22;33721;48.852;9.936;2023-03-24T12:05:49;15.40;99.90
47961;DHT22;33721;48.852;9.936;2023-03-24T12:13:38;15.20;99.90
47961;DHT22;33721;48.852;9.936;2023-03-24T12:29:58;14.90;99.90
47961;DHT22;33721;48.852;9.936;2023-03-24T12:36:02;14.80;99.90
47961;DHT22;33721;48.852;9.936;2023-03-24T12:52:17;14.50;99.90
47961;DHT22;33721;48.852;9.936;2023-03-24T12:54:50;14.40;99.90
47961;DHT22;33721;48.852;9.936;2023-03-24T12:57:22;14.50;99.90
47961;DHT22;33721;48.852;9.936;2023-03-24T13:00:11;14.50;99.90
47961;DHT22;33721;48.852;9.936;2023-03-24T13:02:44;14.50;99.90
47961;DHT22;33721;48.852;9.936;2023-03-24T13:05:18;14.40;99.90
47961;DHT22;33721;48.852;9.936;2023-03-24T13:07:49;14.30;99.90
47961;DHT22;33721;48.852;9.936;2023-03-24T13:10:26;14.30;99.90
47961;DHT22;33721;48.852;9.936;2023-03-24T13:13:22;14.30;99.90
47961;DHT22;33721;48.852;9.936;2023-03-24T13:16:00;14.40;99.90
47961;DHT22;33721;48.852;9.936;2023-03-24T13:18:35;14.40;99.90
47961;DHT22;33721;48.852;9.936;2023-03-24T13:21:20;14.40;99.90
47961;DHT22;33721;48.852;9.936;2023-03-24T13:24:06;14.50;99.90
47961;DHT22;33721;48.852;9.936;2023-03-24T13:26:43;14.40;99.90
47961;DHT22;33721;48.852;9.936;2023-03-24T13:37:50;14.50;99.90
47961;DHT22;33721;48.852;9.936;2023-03-24T13:40:23;14.50;99.90
47961;DHT22;33721;48.852;9.936;2023-03-24T13:42:58;14.50;99.90
47961;DHT22;33721;48.852;9.936;2023-03-24T13:45:41;14.40;99.90
47961;DHT22;33721;48.852;9.936;2023-03-24T13:48:22;14.40;99.90
47961;DHT22;33721;48.852;9.936;2023-03-24T13:50:57;14.30;99.90
47961;DHT22;33721;48.852;9.936;2023-03-24T13:56:11;14.10;99.90
47961;DHT22;33721;48.852;9.936;2023-03-24T14:01:40;14.10;99.90
47961;DHT22;33721;48.852;9.936;2023-03-24T14:06:55;14.00;99.90
47961;DHT22;33721;48.852;9.936;2023-03-24T14:14:21;14.00;99.90
47961;DHT22;33721;48.852;9.936;2023-03-24T14:17:12;13.90;99.90
47961;DHT22;33721;48.852;9.936;2023-03-24T14:19:40;13.80;99.90
47961;DHT22;33721;48.852;9.936;2023-03-24T14:24:39;13.80;99.90
47961;DHT22;33721;48.852;9.936;2023-03-24T14:27:31;13.80;99.90
47961;DHT22;33721;48.852;9.936;2023-03-24T14:30:21;13.70;99.90
47961;DHT22;33721;48.852;9.936;2023-03-24T14:32:53;13.60;99.90
47961;DHT22;33721;48.852;9.936;2023-03-24T14:37:56;13.10;99.90
47961;DHT22;33721;48.852;9.936;2023-03-24T14:40:48;12.80;99.90
47961;DHT22;33721;48.852;9.936;2023-03-24T14:45:54;12.30;99.90
47961;DHT22;33721;48.852;9.936;2023-03-24T14:48:49;12.10;99.90
47961;DHT22;33721;48.852;9.936;2023-03-24T14:51:40;11.90;99.90
47961;DHT22;33721;48.852;9.936;2023-03-24T14:54:29;11.80;99.90
47961;DHT22;33721;48.852;9.936;2023-03-24T14:56:59;11.70;99.90
47961;DHT22;33721;48.852;9.936;2023-03-24T14:59:44;11.50;99.90
47961;DHT22;33721;48.852;9.936;2023-03-24T15:13:18;10.90;99.90
47961;DHT22;33721;48.852;9.936;2023-03-24T15:15:48;10.70;99.90
47961;DHT22;33721;48.852;9.936;2023-03-24T15:18:16;10.60;99.90
47961;DHT22;33721;48.852;9.936;2023-03-24T15:20:48;10.60;99.90
47961;DHT22;33721;48.852;9.936;2023-03-24T15:23:19;10.40;99.90
47961;DHT22;33721;48.852;9.936;2023-03-24T15:25:45;10.30;99.90
47961;DHT22;33721;48.852;9.936;2023-03-24T15:28:24;10.30;99.90
47961;DHT22;33721;48.852;9.936;2023-03-24T15:30:51;10.30;99.90
47961;DHT22;33721;48.852;9.936;2023-03-24T15:33:18;10.30;99.90
47961;DHT22;33721;48.852;9.936;2023-03-24T15:35:46;10.30;99.90
47961;DHT22;33721;48.852;9.936;2023-03-24T15:38:19;10.30;99.90
47961;DHT22;33721;48.852;9.936;2023-03-24T15:40:58;10.30;99.90
47961;DHT22;33721;48.852;9.936;2023-03-24T15:43:25;10.20;99.90
47961;DHT22;33721;48.852;9.936;2023-03-24T15:45:53;10.10;99.90
47961;DHT22;33721;48.852;9.936;2023-03-24T15:48:23;10.10;99.90
47961;DHT22;33721;48.852;9.936;2023-03-24T15:51:00;10.10;99.90
47961;DHT22;33721;48.852;9.936;2023-03-24T15:53:37;10.10;99.90
47961;DHT22;33721;48.852;9.936;2023-03-24T15:56:27;10.10;99.90
47961;DHT22;33721;48.852;9.936;2023-03-24T16:01:28;10.10;99.90
47961;DHT22;33721;48.852;9.936;2023-03-24T16:04:20;10.00;99.90
47961;DHT22;33721;48.852;9.936;2023-03-24T16:06:52;10.00;99.90
47961;DHT22;33721;48.852;9.936;2023-03-24T16:09:19;10.10;99.90
47961;DHT22;33721;48.852;9.936;2023-03-24T16:11:47;10.00;99.90
47961;DHT22;33721;48.852;9.936;2023-03-24T16:14:23;10.00;99.90
47961;DHT22;33721;48.852;9.936;2023-03-24T16:16:53;9.90;99.90
47961;DHT22;33721;48.852;9.936;2023-03-24T16:19:19;9.90;99.90
47961;DHT22;33721;48.852;9.936;2023-03-24T16:21:45;9.90;99.90
47961;DHT22;33721;48.852;9.936;2023-03-24T16:24:11;9.80;99.90
47961;DHT22;33721;48.852;9.936;2023-03-24T16:26:36;9.70;99.90
47961;DHT22;33721;48.852;9.936;2023-03-24T16:29:14;9.70;99.90
47961;DHT22;33721;48.852;9.936;2023-03-24T16:31:41;9.70;99.90
47961;DHT22;33721;48.852;9.936;2023-03-24T16:34:06;9.70;99.90
47961;DHT22;33721;48.852;9.936;2023-03-24T16:36:32;9.60;99.90
47961;DHT22;33721;48.852;9.936;2023-03-24T16:38:59;9.70;99.90
47961;DHT22;33721;48.852;9.936;2023-03-24T16:41:26;9.70;99.90
47961;DHT22;33721;48.852;9.936;2023-03-24T16:43:52;9.70;99.90
47961;DHT22;33721;48.852;9.936;2023-03-24T16:46:30;9.80;99.90
47961;DHT22;33721;48.852;9.936;2023-03-24T16:48:57;9.70;99.90
47961;DHT22;33721;48.852;9.936;2023-03-24T16:51:22;9.70;99.90
47961;DHT22;33721;48.852;9.936;2023-03-24T16:53:48;9.70;99.90
47961;DHT22;33721;48.852;9.936;2023-03-24T16:56:17;9.80;99.90
47961;DHT22;33721;48.852;9.936;2023-03-24T16:58:43;9.90;99.90
47961;DHT22;33721;48.852;9.936;2023-03-24T17:01:33;9.90;99.90
47961;DHT22;33721;48.852;9.936;2023-03-24T17:04:10;10.00;99.90
47961;DHT22;33721;48.852;9.936;2023-03-24T17:06:39;9.90;99.90
47961;DHT22;33721;48.852;9.936;2023-03-24T17:09:05;9.90;99.90
47961;DHT22;33721;48.852;9.936;2023-03-24T17:11:35;10.00;99.90
47961;DHT22;33721;48.852;9.936;2023-03-24T17:14:02;10.00;99.90
47961;DHT22;33721;48.852;9.936;2023-03-24T17:16:40;10.00;99.90
47961;DHT22;33721;48.852;9.936;2023-03-24T17:19:09;10.00;99.90
47961;DHT22;33721;48.852;9.936;2023-03-24T17:21:41;10.00;99.90
47961;DHT22;33721;48.852;9.936;2023-03-24T17:24:09;10.10;99.90
47961;DHT22;33721;48.852;9.936;2023-03-24T17:26:38;10.00;99.90
47961;DHT22;33721;48.852;9.936;2023-03-24T17:29:04;9.90;99.90
47961;DHT22;33721;48.852;9.936;2023-03-24T17:31:31;9.90;99.90
47961;DHT22;33721;48.852;9.936;2023-03-24T17:33:56;9.90;99.90
47961;DHT22;33721;48.852;9.936;2023-03-24T17:36:23;9.90;99.90
47961;DHT22;33721;48.852;9.936;2023-03-24T17:38:49;9.80;99.90
47961;DHT22;33721;48.852;9.936;2023-03-24T17:41:15;9.80;99.90
47961;DHT22;33721;48.852;9.936;2023-03-24T17:43:41;9.70;99.90
47961;DHT22;33721;48.852;9.936;2023-03-24T17:46:07;9.80;99.90
47961;DHT22;33721;48.852;9.936;2023-03-24T17:48:33;9.80;99.90
47961;DHT22;33721;48.852;9.936;2023-03-24T17:50:58;9.70;99.90
47961;DHT22;33721;48.852;9.936;2023-03-24T17:53:25;9.70;99.90
47961;DHT22;33721;48.852;9.936;2023-03-24T17:55:52;9.70;99.90
47961;DHT22;33721;48.852;9.936;2023-03-24T17:58:18;9.70;99.90
47961;DHT22;33721;48.852;9.936;2023-03-24T18:00:44;9.60;99.90
47961;DHT22;33721;48.852;9.936;2023-03-24T18:03:10;9.60;99.90
47961;DHT22;33721;48.852;9.936;2023-03-24T18:05:36;9.60;99.90
47961;DHT22;33721;48.852;9.936;2023-03-24T18:08:03;9.70;99.90
47961;DHT22;33721;48.852;9.936;2023-03-24T18:10:30;9.70;99.90
47961;DHT22;33721;48.852;9.936;2023-03-24T18:12:56;9.70;99.90
47961;DHT22;33721;48.852;9.936;2023-03-24T18:15:21;9.70;99.90
47961;DHT22;33721;48.852;9.936;2023-03-24T18:17:50;9.70;99.90
47961;DHT22;33721;48.852;9.936;2023-03-24T18:20:15;9.80;99.90
47961;DHT22;33721;48.852;9.936;2023-03-24T18:22:41;9.80;99.90
47961;DHT22;33721;48.852;9.936;2023-03-24T18:25:09;9.70;99.90
47961;DHT22;33721;48.852;9.936;2023-03-24T18:27:35;9.70;99.90
47961;DHT22;33721;48.852;9.936;2023-03-24T18:30:02;9.60;99.90
47961;DHT22;33721;48.852;9.936;2023-03-24T18:32:28;9.60;99.90
47961;DHT22;33721;48.852;9.936;2023-03-24T18:34:57;9.60;99.90